sensor_id;sensor_type;location;lat;lon;timestamp;pressure;altitude;pressure_sealevel;temperature;humidity
50380;BME280;37474;59.468;18.040;2023-10-31T00:01:26;99493.66;;;7.52;100.00
50380;BME280;37474;59.468;18.040;2023-10-31T00:03:54;99500.47;;;7.53;100.00
50380;BME280;37474;59.468;18.040;2023-10-31T00:06:22;99504.44;;;7.59;100.00
50380;BME280;37474;59.468;18.040;2023-10-31T00:08:51;99500.94;;;7.60;100.00
50380;BME280;37474;59.468;18.040;2023-10-31T00:11:19;99494.41;;;7.54;100.00
50380;BME280;37474;59.468;18.040;2023-10-31T00:13:47;99496.91;;;7.56;100.00
50380;BME280;37474;59.468;18.040;2023-10-31T00:16:15;99488.03;;;7.60;100.00
50380;BME280;37474;59.468;18.040;2023-10-31T00:18:45;99493.31;;;7.58;100.00
50380;BME280;37474;59.468;18.040;2023-10-31T00:21:13;99488.16;;;7.58;100.00
50380;BME280;37474;59.468;18.040;2023-10-31T00:23:45;99492.31;;;7.61;100.00
50380;BME280;37474;59.468;18.040;2023-10-31T00:26:13;99475.44;;;7.55;100.00
50380;BME280;37474;59.468;18.040;2023-10-31T00:28:42;99486.59;;;7.56;100.00
50380;BME280;37474;59.468;18.040;2023-10-31T00:31:10;99487.41;;;7.56;100.00
50380;BME280;37474;59.468;18.040;2023-10-31T00:33:38;99471.94;;;7.56;100.00
50380;BME280;37474;59.468;18.040;2023-10-31T00:36:08;99483.81;;;7.59;100.00
50380;BME280;37474;59.468;18.040;2023-10-31T00:38:36;99470.34;;;7.54;100.00
50380;BME280;37474;59.468;18.040;2023-10-31T00:41:05;99489.44;;;7.65;100.00
50380;BME280;37474;59.468;18.040;2023-10-31T00:43:33;99488.44;;;7.68;100.00
50380;BME280;37474;59.468;18.040;2023-10-31T00:46:03;99496.44;;;7.63;100.00
50380;BME280;37474;59.468;18.040;2023-10-31T00:48:31;99493.03;;;7.63;100.00
50380;BME280;37474;59.468;18.040;2023-10-31T00:51:03;99487.22;;;7.59;100.00
50380;BME280;37474;59.468;18.040;2023-10-31T00:53:33;99492.31;;;7.61;100.00
50380;BME280;37474;59.468;18.040;2023-10-31T00:56:01;99470.66;;;7.63;100.00
50380;BME280;37474;59.468;18.040;2023-10-31T00:58:29;99467.88;;;7.52;100.00
50380;BME280;37474;59.468;18.040;2023-10-31T01:00:58;99482.72;;;7.63;100.00
50380;BME280;37474;59.468;18.040;2023-10-31T01:03:26;99475.09;;;7.61;100.00
50380;BME280;37474;59.468;18.040;2023-10-31T01:05:55;99472.78;;;7.57;100.00
50380;BME280;37474;59.468;18.040;2023-10-31T01:08:23;99468.03;;;7.49;100.00
50380;BME280;37474;59.468;18.040;2023-10-31T01:10:53;99468.53;;;7.56;100.00
50380;BME280;37474;59.468;18.040;2023-10-31T01:13:21;99467.88;;;7.52;100.00
50380;BME280;37474;59.468;18.040;2023-10-31T01:15:49;99458.38;;;7.53;100.00
50380;BME280;37474;59.468;18.040;2023-10-31T01:18:17;99459.88;;;7.57;100.00
50380;BME280;37474;59.468;18.040;2023-10-31T01:20:45;99467.16;;;7.64;100.00
50380;BME280;37474;59.468;18.040;2023-10-31T01:23:13;99473.88;;;7.67;100.00
50380;BME280;37474;59.468;18.040;2023-10-31T01:25:41;99462.53;;;7.70;100.00
50380;BME280;37474;59.468;18.040;2023-10-31T01:28:11;99456.09;;;7.62;100.00
50380;BME280;37474;59.468;18.040;2023-10-31T01:30:39;99450.03;;;7.63;100.00
50380;BME280;37474;59.468;18.040;2023-10-31T01:33:07;99466.16;;;7.67;100.00
50380;BME280;37474;59.468;18.040;2023-10-31T01:35:35;99470.66;;;7.63;100.00
50380;BME280;37474;59.468;18.040;2023-10-31T01:38:04;99460.69;;;7.57;100.00
50380;BME280;37474;59.468;18.040;2023-10-31T01:40:32;99462.72;;;7.52;100.00
50380;BME280;37474;59.468;18.040;2023-10-31T01:43:00;99457.19;;;7.58;100.00
50380;BME280;37474;59.468;18.040;2023-10-31T01:45:30;99449.56;;;7.57;100.00
50380;BME280;37474;59.468;18.040;2023-10-31T01:47:59;99444.66;;;7.52;100.00
50380;BME280;37474;59.468;18.040;2023-10-31T01:50:27;99449.28;;;7.61;100.00
50380;BME280;37474;59.468;18.040;2023-10-31T01:52:55;99446.88;;;7.58;100.00
50380;BME280;37474;59.468;18.040;2023-10-31T01:55:23;99453.22;;;7.53;100.00
50380;BME280;37474;59.468;18.040;2023-10-31T01:57:54;99428.19;;;7.40;100.00
50380;BME280;37474;59.468;18.040;2023-10-31T02:00:22;99447.63;;;7.46;100.00
50380;BME280;37474;59.468;18.040;2023-10-31T02:02:53;99445.03;;;7.46;100.00
50380;BME280;37474;59.468;18.040;2023-10-31T02:05:22;99435.34;;;7.35;100.00
50380;BME280;37474;59.468;18.040;2023-10-31T02:07:50;99427.97;;;7.29;100.00
50380;BME280;37474;59.468;18.040;2023-10-31T02:10:19;99431.03;;;7.36;100.00
50380;BME280;37474;59.468;18.040;2023-10-31T02:12:47;99439.13;;;7.30;100.00
50380;BME280;37474;59.468;18.040;2023-10-31T02:15:15;99438.66;;;7.23;100.00
50380;BME280;37474;59.468;18.040;2023-10-31T02:17:43;99444.63;;;7.24;100.00
50380;BME280;37474;59.468;18.040;2023-10-31T02:20:13;99458.66;;;7.34;100.00
50380;BME280;37474;59.468;18.040;2023-10-31T02:22:42;99447.16;;;7.39;100.00
50380;BME280;37474;59.468;18.040;2023-10-31T02:25:17;99440.03;;;7.29;100.00
50380;BME280;37474;59.468;18.040;2023-10-31T02:27:45;99441.06;;;7.40;100.00
50380;BME280;37474;59.468;18.040;2023-10-31T02:30:14;99442.00;;;7.39;100.00
50380;BME280;37474;59.468;18.040;2023-10-31T02:32:42;99435.44;;;7.34;100.00
50380;BME280;37474;59.468;18.040;2023-10-31T02:35:11;99438.84;;;7.34;100.00
50380;BME280;37474;59.468;18.040;2023-10-31T02:37:39;99437.63;;;7.26;100.00
50380;BME280;37474;59.468;18.040;2023-10-31T02:40:10;99445.19;;;7.29;100.00
50380;BME280;37474;59.468;18.040;2023-10-31T02:42:38;99436.25;;;7.20;100.00
50380;BME280;37474;59.468;18.040;2023-10-31T02:45:07;99441.13;;;7.25;100.00
50380;BME280;37474;59.468;18.040;2023-10-31T02:47:35;99434.94;;;7.13;100.00
50380;BME280;37474;59.468;18.040;2023-10-31T02:50:04;99430.25;;;7.05;100.00
50380;BME280;37474;59.468;18.040;2023-10-31T02:52:33;99436.22;;;7.06;100.00
50380;BME280;37474;59.468;18.040;2023-10-31T02:55:01;99443.19;;;7.04;100.00
50380;BME280;37474;59.468;18.040;2023-10-31T02:57:31;99438.72;;;7.07;100.00
50380;BME280;37474;59.468;18.040;2023-10-31T02:59:59;99438.13;;;7.02;100.00
50380;BME280;37474;59.468;18.040;2023-10-31T03:02:27;99441.28;;;7.07;100.00
50380;BME280;37474;59.468;18.040;2023-10-31T03:04:56;99437.56;;;6.97;100.00
50380;BME280;37474;59.468;18.040;2023-10-31T03:07:25;99437.75;;;6.94;100.00
50380;BME280;37474;59.468;18.040;2023-10-31T03:09:53;99441.31;;;6.92;100.00
50380;BME280;37474;59.468;18.040;2023-10-31T03:12:21;99451.06;;;6.86;100.00
50380;BME280;37474;59.468;18.040;2023-10-31T03:14:52;99455.38;;;6.86;100.00
50380;BME280;37474;59.468;18.040;2023-10-31T03:17:20;99466.75;;;6.82;100.00
50380;BME280;37474;59.468;18.040;2023-10-31T03:19:49;99454.56;;;6.85;100.00
50380;BME280;37474;59.468;18.040;2023-10-31T03:22:17;99464.44;;;6.77;100.00
50380;BME280;37474;59.468;18.040;2023-10-31T03:24:45;99460.88;;;6.80;100.00
50380;BME280;37474;59.468;18.040;2023-10-31T03:27:13;99460.94;;;6.94;100.00
50380;BME280;37474;59.468;18.040;2023-10-31T03:29:41;99463.84;;;6.88;100.00
50380;BME280;37474;59.468;18.040;2023-10-31T03:32:11;99461.81;;;6.79;100.00
50380;BME280;37474;59.468;18.040;2023-10-31T03:34:39;99461.88;;;6.77;100.00
50380;BME280;37474;59.468;18.040;2023-10-31T03:37:08;99466.94;;;6.95;100.00
50380;BME280;37474;59.468;18.040;2023-10-31T03:39:36;99468.13;;;7.03;100.00
50380;BME280;37474;59.468;18.040;2023-10-31T03:42:04;99463.66;;;7.07;100.00
50380;BME280;37474;59.468;18.040;2023-10-31T03:44:32;99460.41;;;7.03;100.00
50380;BME280;37474;59.468;18.040;2023-10-31T03:47:00;99473.16;;;7.21;100.00
50380;BME280;37474;59.468;18.040;2023-10-31T03:49:30;99460.25;;;7.21;100.00
50380;BME280;37474;59.468;18.040;2023-10-31T03:51:58;99464.78;;;7.17;100.00
50380;BME280;37474;59.468;18.040;2023-10-31T03:54:26;99465.97;;;7.26;100.00
50380;BME280;37474;59.468;18.040;2023-10-31T03:56:54;99455.69;;;7.26;100.00
50380;BME280;37474;59.468;18.040;2023-10-31T03:59:22;99459.47;;;7.34;100.00
50380;BME280;37474;59.468;18.040;2023-10-31T04:01:50;99450.34;;;7.29;100.00
50380;BME280;37474;59.468;18.040;2023-10-31T04:04:18;99450.16;;;7.32;100.00
50380;BME280;37474;59.468;18.040;2023-10-31T04:06:48;99463.34;;;7.41;100.00
50380;BME280;37474;59.468;18.040;2023-10-31T04:09:16;99448.59;;;7.44;100.00
50380;BME280;37474;59.468;18.040;2023-10-31T04:11:44;99447.88;;;7.41;100.00
50380;BME280;37474;59.468;18.040;2023-10-31T04:14:12;99434.88;;;7.43;100.00
50380;BME280;37474;59.468;18.040;2023-10-31T04:16:41;99454.97;;;7.52;100.00
50380;BME280;37474;59.468;18.040;2023-10-31T04:19:12;99448.47;;;7.61;100.00
50380;BME280;37474;59.468;18.040;2023-10-31T04:21:41;99457.03;;;7.61;100.00
50380;BME280;37474;59.468;18.040;2023-10-31T04:24:10;99445.03;;;7.60;100.00
50380;BME280;37474;59.468;18.040;2023-10-31T04:26:40;99445.13;;;7.59;100.00
50380;BME280;37474;59.468;18.040;2023-10-31T04:29:08;99441.91;;;7.55;100.00
50380;BME280;37474;59.468;18.040;2023-10-31T04:31:36;99444.97;;;7.62;100.00
50380;BME280;37474;59.468;18.040;2023-10-31T04:34:10;99456.66;;;7.67;100.00
50380;BME280;37474;59.468;18.040;2023-10-31T04:36:38;99452.44;;;7.66;100.00
50380;BME280;37474;59.468;18.040;2023-10-31T04:39:07;99460.69;;;7.72;100.00
50380;BME280;37474;59.468;18.040;2023-10-31T04:41:37;99447.34;;;7.65;100.00
50380;BME280;37474;59.468;18.040;2023-10-31T04:44:05;99451.66;;;7.64;100.00
50380;BME280;37474;59.468;18.040;2023-10-31T04:46:34;99462.38;;;7.73;100.00
50380;BME280;37474;59.468;18.040;2023-10-31T04:49:02;99443.84;;;7.66;100.00
50380;BME280;37474;59.468;18.040;2023-10-31T04:51:33;99457.13;;;7.74;100.00
50380;BME280;37474;59.468;18.040;2023-10-31T04:54:01;99452.94;;;7.72;100.00
50380;BME280;37474;59.468;18.040;2023-10-31T04:56:30;99453.97;;;7.69;100.00
50380;BME280;37474;59.468;18.040;2023-10-31T04:58:59;99451.50;;;7.67;100.00
50380;BME280;37474;59.468;18.040;2023-10-31T05:01:28;99448.72;;;7.71;100.00
50380;BME280;37474;59.468;18.040;2023-10-31T05:03:56;99452.31;;;7.68;100.00
50380;BME280;37474;59.468;18.040;2023-10-31T05:06:38;99452.03;;;7.58;100.00
50380;BME280;37474;59.468;18.040;2023-10-31T05:09:06;99460.50;;;7.60;100.00
50380;BME280;37474;59.468;18.040;2023-10-31T05:11:35;99465.97;;;7.56;100.00
50380;BME280;37474;59.468;18.040;2023-10-31T05:14:04;99472.78;;;7.57;100.00
50380;BME280;37474;59.468;18.040;2023-10-31T05:16:39;99473.59;;;7.57;100.00
50380;BME280;37474;59.468;18.040;2023-10-31T05:19:07;99474.16;;;7.62;100.00
50380;BME280;37474;59.468;18.040;2023-10-31T05:21:35;99475.44;;;7.55;100.00
50380;BME280;37474;59.468;18.040;2023-10-31T05:24:04;99477.94;;;7.57;100.00
50380;BME280;37474;59.468;18.040;2023-10-31T05:26:32;99489.16;;;7.56;100.00
50380;BME280;37474;59.468;18.040;2023-10-31T05:29:00;99489.44;;;7.51;100.00
50380;BME280;37474;59.468;18.040;2023-10-31T05:31:30;99496.03;;;7.41;100.00
50380;BME280;37474;59.468;18.040;2023-10-31T05:33:58;99499.97;;;7.32;100.00
50380;BME280;37474;59.468;18.040;2023-10-31T05:36:27;99491.19;;;7.21;100.00
50380;BME280;37474;59.468;18.040;2023-10-31T05:38:55;99487.69;;;7.22;100.00
50380;BME280;37474;59.468;18.040;2023-10-31T05:41:23;99495.44;;;7.22;100.00
50380;BME280;37474;59.468;18.040;2023-10-31T05:43:52;99492.84;;;7.22;100.00
50380;BME280;37474;59.468;18.040;2023-10-31T05:46:20;99493.78;;;7.21;100.00
50380;BME280;37474;59.468;18.040;2023-10-31T05:48:49;99486.84;;;7.07;100.00
50380;BME280;37474;59.468;18.040;2023-10-31T05:51:18;99506.44;;;7.09;100.00
50380;BME280;37474;59.468;18.040;2023-10-31T05:53:48;99502.81;;;6.98;100.00
50380;BME280;37474;59.468;18.040;2023-10-31T05:56:16;99500.84;;;6.87;100.00
50380;BME280;37474;59.468;18.040;2023-10-31T05:58:45;99503.41;;;6.87;100.00
50380;BME280;37474;59.468;18.040;2023-10-31T06:01:13;99507.72;;;6.86;100.00
50380;BME280;37474;59.468;18.040;2023-10-31T06:03:41;99503.75;;;6.81;100.00
50380;BME280;37474;59.468;18.040;2023-10-31T06:06:12;99505.03;;;6.58;100.00
50380;BME280;37474;59.468;18.040;2023-10-31T06:08:41;99511.75;;;6.45;100.00
50380;BME280;37474;59.468;18.040;2023-10-31T06:11:09;99517.16;;;6.40;100.00
50380;BME280;37474;59.468;18.040;2023-10-31T06:13:39;99511.81;;;6.43;100.00
50380;BME280;37474;59.468;18.040;2023-10-31T06:16:07;99527.78;;;6.34;100.00
50380;BME280;37474;59.468;18.040;2023-10-31T06:18:38;99532.47;;;6.26;100.00
50380;BME280;37474;59.468;18.040;2023-10-31T06:21:06;99521.81;;;6.33;100.00
50380;BME280;37474;59.468;18.040;2023-10-31T06:23:37;99520.78;;;6.36;100.00
50380;BME280;37474;59.468;18.040;2023-10-31T06:26:06;99528.34;;;6.23;100.00
50380;BME280;37474;59.468;18.040;2023-10-31T06:28:37;99529.00;;;6.27;100.00
50380;BME280;37474;59.468;18.040;2023-10-31T06:31:18;99530.00;;;6.24;100.00
50380;BME280;37474;59.468;18.040;2023-10-31T06:33:46;99539.13;;;6.30;100.00
50380;BME280;37474;59.468;18.040;2023-10-31T06:36:14;99540.06;;;6.29;100.00
50380;BME280;37474;59.468;18.040;2023-10-31T06:38:44;99546.94;;;6.28;100.00
50380;BME280;37474;59.468;18.040;2023-10-31T06:41:12;99548.66;;;6.12;100.00
50380;BME280;37474;59.468;18.040;2023-10-31T06:43:41;99549.72;;;6.08;100.00
50380;BME280;37474;59.468;18.040;2023-10-31T06:46:09;99554.88;;;6.08;100.00
50380;BME280;37474;59.468;18.040;2023-10-31T06:48:39;99553.59;;;5.99;100.00
50380;BME280;37474;59.468;18.040;2023-10-31T06:51:07;99555.59;;;5.94;100.00
50380;BME280;37474;59.468;18.040;2023-10-31T06:53:35;99565.25;;;5.89;100.00
50380;BME280;37474;59.468;18.040;2023-10-31T06:56:06;99564.47;;;5.87;100.00
50380;BME280;37474;59.468;18.040;2023-10-31T06:58:34;99560.09;;;5.72;100.00
50380;BME280;37474;59.468;18.040;2023-10-31T07:01:02;99565.53;;;5.66;100.00
50380;BME280;37474;59.468;18.040;2023-10-31T07:03:30;99559.03;;;5.24;100.00
50380;BME280;37474;59.468;18.040;2023-10-31T07:05:59;99562.53;;;5.23;100.00
50380;BME280;37474;59.468;18.040;2023-10-31T07:08:29;99570.38;;;5.20;100.00
50380;BME280;37474;59.468;18.040;2023-10-31T07:10:57;99572.31;;;5.15;100.00
50380;BME280;37474;59.468;18.040;2023-10-31T07:13:29;99577.78;;;5.26;100.00
50380;BME280;37474;59.468;18.040;2023-10-31T07:15:57;99576.72;;;5.30;100.00
50380;BME280;37474;59.468;18.040;2023-10-31T07:18:25;99566.44;;;5.13;100.00
50380;BME280;37474;59.468;18.040;2023-10-31T07:20:56;99575.38;;;5.23;100.00
50380;BME280;37474;59.468;18.040;2023-10-31T07:23:24;99573.00;;;5.18;100.00
50380;BME280;37474;59.468;18.040;2023-10-31T07:25:52;99566.84;;;5.22;100.00
50380;BME280;37474;59.468;18.040;2023-10-31T07:28:20;99579.44;;;5.27;100.00
50380;BME280;37474;59.468;18.040;2023-10-31T07:30:50;99577.38;;;5.16;100.00
50380;BME280;37474;59.468;18.040;2023-10-31T07:33:18;99577.41;;;4.97;100.00
50380;BME280;37474;59.468;18.040;2023-10-31T07:35:46;99583.63;;;5.11;100.00
50380;BME280;37474;59.468;18.040;2023-10-31T07:38:14;99578.38;;;5.14;100.00
50380;BME280;37474;59.468;18.040;2023-10-31T07:40:42;99589.22;;;5.01;100.00
50380;BME280;37474;59.468;18.040;2023-10-31T07:43:11;99579.03;;;5.00;100.00
50380;BME280;37474;59.468;18.040;2023-10-31T07:45:39;99575.72;;;5.15;100.00
50380;BME280;37474;59.468;18.040;2023-10-31T07:48:09;99575.81;;;5.14;100.00
50380;BME280;37474;59.468;18.040;2023-10-31T07:50:37;99586.56;;;5.22;100.00
50380;BME280;37474;59.468;18.040;2023-10-31T07:53:05;99587.66;;;5.16;100.00
50380;BME280;37474;59.468;18.040;2023-10-31T07:55:33;99599.75;;;5.14;100.00
50380;BME280;37474;59.468;18.040;2023-10-31T07:58:01;99598.22;;;5.10;100.00
50380;BME280;37474;59.468;18.040;2023-10-31T08:00:29;99594.44;;;5.00;100.00
50380;BME280;37474;59.468;18.040;2023-10-31T08:02:58;99584.22;;;4.98;100.00
50380;BME280;37474;59.468;18.040;2023-10-31T08:05:28;99597.06;;;4.98;100.00
50380;BME280;37474;59.468;18.040;2023-10-31T08:07:56;99598.13;;;4.94;100.00
50380;BME280;37474;59.468;18.040;2023-10-31T08:10:28;99604.38;;;4.89;100.00
50380;BME280;37474;59.468;18.040;2023-10-31T08:12:56;99592.22;;;4.92;100.00
50380;BME280;37474;59.468;18.040;2023-10-31T08:15:24;99591.94;;;4.98;100.00
50380;BME280;37474;59.468;18.040;2023-10-31T08:17:52;99601.28;;;4.99;100.00
50380;BME280;37474;59.468;18.040;2023-10-31T08:20:20;99587.28;;;4.88;100.00
50380;BME280;37474;59.468;18.040;2023-10-31T08:22:50;99594.03;;;4.90;100.00
50380;BME280;37474;59.468;18.040;2023-10-31T08:25:18;99599.25;;;4.89;100.00
50380;BME280;37474;59.468;18.040;2023-10-31T08:27:46;99584.34;;;4.78;100.00
50380;BME280;37474;59.468;18.040;2023-10-31T08:30:14;99590.75;;;4.87;100.00
50380;BME280;37474;59.468;18.040;2023-10-31T08:32:42;99579.06;;;4.62;100.00
50380;BME280;37474;59.468;18.040;2023-10-31T08:35:11;99589.13;;;4.67;100.00
50380;BME280;37474;59.468;18.040;2023-10-31T08:37:39;99594.09;;;4.70;100.00
50380;BME280;37474;59.468;18.040;2023-10-31T08:40:09;99596.47;;;4.74;100.00
50380;BME280;37474;59.468;18.040;2023-10-31T08:42:37;99587.72;;;4.60;100.00
50380;BME280;37474;59.468;18.040;2023-10-31T08:45:06;99575.72;;;4.60;100.00
50380;BME280;37474;59.468;18.040;2023-10-31T08:47:37;99574.22;;;4.56;100.00
50380;BME280;37474;59.468;18.040;2023-10-31T08:50:06;99567.97;;;4.62;100.00
50380;BME280;37474;59.468;18.040;2023-10-31T08:52:35;99564.69;;;4.58;100.00
50380;BME280;37474;59.468;18.040;2023-10-31T08:55:04;99569.00;;;4.58;100.00
50380;BME280;37474;59.468;18.040;2023-10-31T08:57:34;99569.91;;;4.57;100.00
50380;BME280;37474;59.468;18.040;2023-10-31T09:00:03;99567.75;;;4.47;100.00
50380;BME280;37474;59.468;18.040;2023-10-31T09:02:32;99568.84;;;4.61;100.00
50380;BME280;37474;59.468;18.040;2023-10-31T09:05:00;99569.75;;;4.60;100.00
50380;BME280;37474;59.468;18.040;2023-10-31T09:07:30;99557.91;;;4.57;100.00
50380;BME280;37474;59.468;18.040;2023-10-31T09:09:59;99545.06;;;4.57;100.00
50380;BME280;37474;59.468;18.040;2023-10-31T09:12:27;99549.41;;;4.74;100.00
50380;BME280;37474;59.468;18.040;2023-10-31T09:15:00;99545.25;;;4.71;100.00
50380;BME280;37474;59.468;18.040;2023-10-31T09:17:28;99558.66;;;4.78;100.00
50380;BME280;37474;59.468;18.040;2023-10-31T09:19:57;99551.63;;;4.82;100.00
50380;BME280;37474;59.468;18.040;2023-10-31T09:22:26;99546.03;;;4.73;100.00
50380;BME280;37474;59.468;18.040;2023-10-31T09:24:54;99549.13;;;4.80;100.00
50380;BME280;37474;59.468;18.040;2023-10-31T09:27:22;99540.88;;;4.73;100.00
50380;BME280;37474;59.468;18.040;2023-10-31T09:29:50;99548.59;;;4.73;100.00
50380;BME280;37474;59.468;18.040;2023-10-31T09:32:20;99545.31;;;4.70;100.00
50380;BME280;37474;59.468;18.040;2023-10-31T09:34:48;99541.50;;;4.60;100.00
50380;BME280;37474;59.468;18.040;2023-10-31T09:37:17;99544.97;;;4.59;100.00
50380;BME280;37474;59.468;18.040;2023-10-31T09:39:45;99541.09;;;4.69;100.00
50380;BME280;37474;59.468;18.040;2023-10-31T09:42:13;99546.34;;;4.66;100.00
50380;BME280;37474;59.468;18.040;2023-10-31T09:44:41;99537.28;;;4.59;100.00
50380;BME280;37474;59.468;18.040;2023-10-31T09:47:10;99533.59;;;4.64;100.00
50380;BME280;37474;59.468;18.040;2023-10-31T09:49:39;99534.97;;;4.71;100.00
50380;BME280;37474;59.468;18.040;2023-10-31T09:52:09;99526.59;;;4.68;100.00
50380;BME280;37474;59.468;18.040;2023-10-31T09:54:38;99526.75;;;4.46;100.00
50380;BME280;37474;59.468;18.040;2023-10-31T09:57:09;99533.19;;;4.55;100.00
50380;BME280;37474;59.468;18.040;2023-10-31T09:59:37;99523.97;;;4.50;100.00
50380;BME280;37474;59.468;18.040;2023-10-31T10:02:05;99514.47;;;4.53;100.00
50380;BME280;37474;59.468;18.040;2023-10-31T10:04:34;99513.91;;;4.65;100.00
50380;BME280;37474;59.468;18.040;2023-10-31T10:07:05;99503.38;;;4.52;100.00
50380;BME280;37474;59.468;18.040;2023-10-31T10:09:33;99493.94;;;4.53;100.00
50380;BME280;37474;59.468;18.040;2023-10-31T10:12:05;99506.16;;;4.47;100.00
50380;BME280;37474;59.468;18.040;2023-10-31T10:14:34;99494.22;;;4.46;100.00
50380;BME280;37474;59.468;18.040;2023-10-31T10:17:14;99503.50;;;4.49;100.00
50380;BME280;37474;59.468;18.040;2023-10-31T10:19:42;99492.28;;;4.52;100.00
50380;BME280;37474;59.468;18.040;2023-10-31T10:22:12;99481.84;;;4.55;100.00
50380;BME280;37474;59.468;18.040;2023-10-31T10:24:41;99464.38;;;4.44;100.00
50380;BME280;37474;59.468;18.040;2023-10-31T10:27:10;99485.06;;;4.41;100.00
50380;BME280;37474;59.468;18.040;2023-10-31T10:29:38;99487.28;;;4.48;100.00
50380;BME280;37474;59.468;18.040;2023-10-31T10:32:08;99465.78;;;4.51;100.00
50380;BME280;37474;59.468;18.040;2023-10-31T10:34:36;99470.53;;;4.59;100.00
50380;BME280;37474;59.468;18.040;2023-10-31T10:37:05;99475.47;;;4.63;100.00
50380;BME280;37474;59.468;18.040;2023-10-31T10:39:36;99472.97;;;4.62;100.00
50380;BME280;37474;59.468;18.040;2023-10-31T10:42:10;99468.88;;;4.58;100.00
50380;BME280;37474;59.468;18.040;2023-10-31T10:44:42;99470.13;;;4.68;100.00
50380;BME280;37474;59.468;18.040;2023-10-31T10:47:12;99467.69;;;4.65;100.00
50380;BME280;37474;59.468;18.040;2023-10-31T10:49:41;99460.19;;;4.60;100.00
50380;BME280;37474;59.468;18.040;2023-10-31T10:52:17;99467.03;;;4.61;100.00
50380;BME280;37474;59.468;18.040;2023-10-31T10:54:53;99460.19;;;4.60;100.00
50380;BME280;37474;59.468;18.040;2023-10-31T10:57:31;99463.94;;;4.72;100.00
50380;BME280;37474;59.468;18.040;2023-10-31T11:00:03;99459.06;;;4.66;100.00
50380;BME280;37474;59.468;18.040;2023-10-31T11:02:32;99467.34;;;4.72;100.00
50380;BME280;37474;59.468;18.040;2023-10-31T11:05:05;99461.94;;;4.60;100.00
50380;BME280;37474;59.468;18.040;2023-10-31T11:07:34;99470.13;;;4.68;100.00
50380;BME280;37474;59.468;18.040;2023-10-31T11:10:05;99458.13;;;4.68;100.00
50380;BME280;37474;59.468;18.040;2023-10-31T11:12:33;99461.75;;;4.82;100.00
50380;BME280;37474;59.468;18.040;2023-10-31T11:15:02;99470.69;;;4.92;100.00
50380;BME280;37474;59.468;18.040;2023-10-31T11:17:33;99462.75;;;4.96;100.00
50380;BME280;37474;59.468;18.040;2023-10-31T11:20:03;99463.66;;;4.95;100.00
50380;BME280;37474;59.468;18.040;2023-10-31T11:22:38;99452.78;;;4.90;100.00
50380;BME280;37474;59.468;18.040;2023-10-31T11:25:10;99438.50;;;4.85;100.00
50380;BME280;37474;59.468;18.040;2023-10-31T11:27:51;99447.97;;;5.01;100.00
50380;BME280;37474;59.468;18.040;2023-10-31T11:30:27;99441.91;;;5.02;100.00
50380;BME280;37474;59.468;18.040;2023-10-31T11:32:58;99448.69;;;5.03;100.00
50380;BME280;37474;59.468;18.040;2023-10-31T11:35:29;99444.09;;;5.10;100.00
50380;BME280;37474;59.468;18.040;2023-10-31T11:38:01;99443.25;;;5.10;100.00
50380;BME280;37474;59.468;18.040;2023-10-31T11:40:32;99444.63;;;4.99;100.00
50380;BME280;37474;59.468;18.040;2023-10-31T11:43:03;99439.34;;;5.02;100.00
50380;BME280;37474;59.468;18.040;2023-10-31T11:45:35;99431.56;;;5.04;100.00
50380;BME280;37474;59.468;18.040;2023-10-31T11:48:04;99435.84;;;5.03;100.00
50380;BME280;37474;59.468;18.040;2023-10-31T11:50:37;99431.50;;;5.06;100.00
50380;BME280;37474;59.468;18.040;2023-10-31T11:53:07;99423.19;;;5.00;100.00
50380;BME280;37474;59.468;18.040;2023-10-31T11:55:41;99424.53;;;5.08;100.00
50380;BME280;37474;59.468;18.040;2023-10-31T11:58:14;99412.66;;;5.05;100.00
50380;BME280;37474;59.468;18.040;2023-10-31T12:00:43;99400.06;;;5.00;100.00
50380;BME280;37474;59.468;18.040;2023-10-31T12:03:12;99421.06;;;5.09;100.00
50380;BME280;37474;59.468;18.040;2023-10-31T12:05:50;99403.59;;;4.98;100.00
50380;BME280;37474;59.468;18.040;2023-10-31T12:08:25;99409.13;;;5.08;100.00
50380;BME280;37474;59.468;18.040;2023-10-31T12:11:03;99393.25;;;4.99;100.00
50380;BME280;37474;59.468;18.040;2023-10-31T12:13:31;99399.16;;;5.01;100.00
50380;BME280;37474;59.468;18.040;2023-10-31T12:16:00;99396.09;;;5.11;100.00
50380;BME280;37474;59.468;18.040;2023-10-31T12:18:28;99398.31;;;5.18;100.00
50380;BME280;37474;59.468;18.040;2023-10-31T12:20:56;99398.13;;;5.21;100.00
50380;BME280;37474;59.468;18.040;2023-10-31T12:23:25;99393.09;;;5.20;100.00
50380;BME280;37474;59.468;18.040;2023-10-31T12:25:54;99395.06;;;5.15;100.00
50380;BME280;37474;59.468;18.040;2023-10-31T12:28:24;99391.56;;;5.16;100.00
50380;BME280;37474;59.468;18.040;2023-10-31T12:30:55;99389.47;;;5.24;100.00
50380;BME280;37474;59.468;18.040;2023-10-31T12:33:26;99394.59;;;5.24;100.00
50380;BME280;37474;59.468;18.040;2023-10-31T12:35:58;99390.19;;;5.26;100.00
50380;BME280;37474;59.468;18.040;2023-10-31T12:38:28;99399.50;;;5.28;100.00
50380;BME280;37474;59.468;18.040;2023-10-31T12:40:58;99390.19;;;5.26;100.00
50380;BME280;37474;59.468;18.040;2023-10-31T12:43:27;99380.69;;;5.28;100.00
50380;BME280;37474;59.468;18.040;2023-10-31T12:45:56;99373.94;;;5.25;100.00
50380;BME280;37474;59.468;18.040;2023-10-31T12:48:24;99385.88;;;5.26;100.00
50380;BME280;37474;59.468;18.040;2023-10-31T12:51:06;99377.34;;;5.26;100.00
50380;BME280;37474;59.468;18.040;2023-10-31T12:53:35;99363.25;;;5.17;100.00
50380;BME280;37474;59.468;18.040;2023-10-31T12:56:06;99371.25;;;5.28;100.00
50380;BME280;37474;59.468;18.040;2023-10-31T12:58:34;99359.44;;;5.24;100.00
50380;BME280;37474;59.468;18.040;2023-10-31T13:01:10;99356.66;;;5.29;100.00